sensor_id;sensor_type;location;lat;lon;timestamp;pressure;altitude;pressure_sealevel;temperature;humidity
13734;BME280;43298;52.560;13.508;2023-04-08T00:00:50;101533.25;;;5.69;100.00
13734;BME280;43298;52.560;13.508;2023-04-08T00:03:16;101538.41;;;5.68;100.00
13734;BME280;43298;52.560;13.508;2023-04-08T00:05:42;101531.50;;;5.71;100.00
13734;BME280;43298;52.560;13.508;2023-04-08T00:08:08;101528.09;;;5.74;100.00
13734;BME280;43298;52.560;13.508;2023-04-08T00:10:34;101534.94;;;5.72;100.00
13734;BME280;43298;52.560;13.508;2023-04-08T00:12:59;101540.91;;;5.74;100.00
13734;BME280;43298;52.560;13.508;2023-04-08T00:15:26;101532.38;;;5.72;100.00
13734;BME280;43298;52.560;13.508;2023-04-08T00:17:52;101525.53;;;5.74;100.00
13734;BME280;43298;52.560;13.508;2023-04-08T00:20:21;101533.19;;;5.77;100.00
13734;BME280;43298;52.560;13.508;2023-04-08T00:22:47;101534.91;;;5.75;100.00
13734;BME280;43298;52.560;13.508;2023-04-08T00:25:13;101525.50;;;5.75;100.00
13734;BME280;43298;52.560;13.508;2023-04-08T00:27:38;101538.41;;;5.68;100.00
13734;BME280;43298;52.560;13.508;2023-04-08T00:30:05;101540.09;;;5.69;100.00
13734;BME280;43298;52.560;13.508;2023-04-08T00:32:31;101548.59;;;5.75;100.00
13734;BME280;43298;52.560;13.508;2023-04-08T00:34:57;101536.63;;;5.74;100.00
13734;BME280;43298;52.560;13.508;2023-04-08T00:37:23;101547.75;;;5.73;100.00
13734;BME280;43298;52.560;13.508;2023-04-08T00:39:52;101521.19;;;5.77;100.00
13734;BME280;43298;52.560;13.508;2023-04-08T00:42:19;101518.59;;;5.80;100.00
13734;BME280;43298;52.560;13.508;2023-04-08T00:44:46;101520.41;;;5.74;100.00
13734;BME280;43298;52.560;13.508;2023-04-08T00:47:13;101513.53;;;5.73;100.00
13734;BME280;43298;52.560;13.508;2023-04-08T00:49:40;101507.53;;;5.77;100.00
13734;BME280;43298;52.560;13.508;2023-04-08T00:52:06;101501.53;;;5.76;100.00
13734;BME280;43298;52.560;13.508;2023-04-08T00:54:32;101504.13;;;5.75;100.00
13734;BME280;43298;52.560;13.508;2023-04-08T00:56:58;101506.69;;;5.76;100.00
13734;BME280;43298;52.560;13.508;2023-04-08T00:59:28;101499.84;;;5.75;100.00
13734;BME280;43298;52.560;13.508;2023-04-08T01:05:04;101498.22;;;5.68;100.00
13734;BME280;43298;52.560;13.508;2023-04-08T01:07:36;101497.34;;;5.68;100.00
13734;BME280;43298;52.560;13.508;2023-04-08T01:10:29;101501.56;;;5.73;100.00
13734;BME280;43298;52.560;13.508;2023-04-08T01:12:58;101505.03;;;5.69;100.00
13734;BME280;43298;52.560;13.508;2023-04-08T01:15:27;101499.91;;;5.69;100.00
13734;BME280;43298;52.560;13.508;2023-04-08T01:17:55;101500.78;;;5.67;100.00
13734;BME280;43298;52.560;13.508;2023-04-08T01:20:24;101517.00;;;5.67;100.00
13734;BME280;43298;52.560;13.508;2023-04-08T01:25:36;101518.66;;;5.73;100.00
13734;BME280;43298;52.560;13.508;2023-04-08T01:28:08;101508.41;;;5.73;100.00
13734;BME280;43298;52.560;13.508;2023-04-08T01:30:38;101507.59;;;5.71;100.00
13734;BME280;43298;52.560;13.508;2023-04-08T01:33:05;101510.97;;;5.73;100.00
13734;BME280;43298;52.560;13.508;2023-04-08T01:35:32;101509.28;;;5.72;100.00
13734;BME280;43298;52.560;13.508;2023-04-08T01:37:59;101510.16;;;5.71;100.00
13734;BME280;43298;52.560;13.508;2023-04-08T01:40:26;101509.28;;;5.70;100.00
13734;BME280;43298;52.560;13.508;2023-04-08T01:42:55;101519.56;;;5.70;100.00
13734;BME280;43298;52.560;13.508;2023-04-08T01:45:22;101521.25;;;5.73;100.00
13734;BME280;43298;52.560;13.508;2023-04-08T01:47:49;101514.38;;;5.75;100.00
13734;BME280;43298;52.560;13.508;2023-04-08T01:50:16;101512.66;;;5.77;100.00
13734;BME280;43298;52.560;13.508;2023-04-08T01:52:45;101504.13;;;5.73;100.00
13734;BME280;43298;52.560;13.508;2023-04-08T01:55:12;101506.66;;;5.78;100.00
13734;BME280;43298;52.560;13.508;2023-04-08T01:57:38;101499.84;;;5.75;100.00
13734;BME280;43298;52.560;13.508;2023-04-08T02:00:11;101503.25;;;5.76;100.00
13734;BME280;43298;52.560;13.508;2023-04-08T02:02:39;101504.97;;;5.77;100.00
13734;BME280;43298;52.560;13.508;2023-04-08T02:05:07;101505.81;;;5.77;100.00
13734;BME280;43298;52.560;13.508;2023-04-08T02:07:33;101516.94;;;5.76;100.00
13734;BME280;43298;52.560;13.508;2023-04-08T02:09:59;101529.75;;;5.78;100.00
13734;BME280;43298;52.560;13.508;2023-04-08T02:12:26;101529.75;;;5.79;100.00
13734;BME280;43298;52.560;13.508;2023-04-08T02:14:53;101534.00;;;5.79;100.00
13734;BME280;43298;52.560;13.508;2023-04-08T02:17:49;101534.91;;;5.81;100.00
13734;BME280;43298;52.560;13.508;2023-04-08T02:23:18;101538.34;;;5.75;100.00
13734;BME280;43298;52.560;13.508;2023-04-08T02:25:45;101533.16;;;5.80;100.00
13734;BME280;43298;52.560;13.508;2023-04-08T02:28:12;101526.31;;;5.79;100.00
13734;BME280;43298;52.560;13.508;2023-04-08T02:30:42;101529.75;;;5.78;100.00
13734;BME280;43298;52.560;13.508;2023-04-08T02:33:10;101534.03;;;5.77;100.00
13734;BME280;43298;52.560;13.508;2023-04-08T02:35:37;101533.16;;;5.80;100.00
13734;BME280;43298;52.560;13.508;2023-04-08T02:38:04;101536.59;;;5.77;100.00
13734;BME280;43298;52.560;13.508;2023-04-08T02:40:32;101533.16;;;5.80;100.00
13734;BME280;43298;52.560;13.508;2023-04-08T02:42:59;101536.59;;;5.79;100.00
13734;BME280;43298;52.560;13.508;2023-04-08T02:45:41;101541.75;;;5.76;100.00
13734;BME280;43298;52.560;13.508;2023-04-08T02:48:09;101543.47;;;5.74;100.00
13734;BME280;43298;52.560;13.508;2023-04-08T02:50:35;101541.75;;;5.76;100.00
13734;BME280;43298;52.560;13.508;2023-04-08T02:53:02;101546.03;;;5.77;100.00
13734;BME280;43298;52.560;13.508;2023-04-08T02:55:28;101557.09;;;5.80;100.00
13734;BME280;43298;52.560;13.508;2023-04-08T02:57:54;101552.00;;;5.76;100.00
13734;BME280;43298;52.560;13.508;2023-04-08T03:00:19;101556.28;;;5.77;100.00
13734;BME280;43298;52.560;13.508;2023-04-08T03:02:45;101543.50;;;5.72;100.00
13734;BME280;43298;52.560;13.508;2023-04-08T03:05:11;101545.19;;;5.73;100.00
13734;BME280;43298;52.560;13.508;2023-04-08T03:07:37;101551.16;;;5.77;100.00
13734;BME280;43298;52.560;13.508;2023-04-08T03:10:04;101558.84;;;5.77;100.00
13734;BME280;43298;52.560;13.508;2023-04-08T03:12:30;101553.75;;;5.75;100.00
13734;BME280;43298;52.560;13.508;2023-04-08T03:14:56;101559.69;;;5.77;100.00
13734;BME280;43298;52.560;13.508;2023-04-08T03:17:21;101557.13;;;5.76;100.00
13734;BME280;43298;52.560;13.508;2023-04-08T03:19:47;101560.56;;;5.78;100.00
13734;BME280;43298;52.560;13.508;2023-04-08T03:22:13;101560.59;;;5.73;100.00
13734;BME280;43298;52.560;13.508;2023-04-08T03:24:39;101568.28;;;5.73;100.00
13734;BME280;43298;52.560;13.508;2023-04-08T03:27:05;101569.97;;;5.73;100.00
13734;BME280;43298;52.560;13.508;2023-04-08T03:29:31;101583.66;;;5.76;100.00
13734;BME280;43298;52.560;13.508;2023-04-08T03:31:57;101573.38;;;5.76;100.00
13734;BME280;43298;52.560;13.508;2023-04-08T03:34:22;101573.38;;;5.78;100.00
13734;BME280;43298;52.560;13.508;2023-04-08T03:36:48;101571.63;;;5.80;100.00
13734;BME280;43298;52.560;13.508;2023-04-08T03:39:14;101575.97;;;5.76;100.00
13734;BME280;43298;52.560;13.508;2023-04-08T03:41:40;101574.28;;;5.74;100.00
13734;BME280;43298;52.560;13.508;2023-04-08T03:44:05;101576.78;;;5.78;100.00
13734;BME280;43298;52.560;13.508;2023-04-08T03:46:31;101569.94;;;5.80;100.00
13734;BME280;43298;52.560;13.508;2023-04-08T03:48:57;101571.69;;;5.75;100.00
13734;BME280;43298;52.560;13.508;2023-04-08T03:51:23;101579.34;;;5.80;100.00
13734;BME280;43298;52.560;13.508;2023-04-08T03:53:49;101587.91;;;5.79;100.00
13734;BME280;43298;52.560;13.508;2023-04-08T03:56:14;101585.34;;;5.79;100.00
13734;BME280;43298;52.560;13.508;2023-04-08T03:58:40;101588.78;;;5.78;100.00
13734;BME280;43298;52.560;13.508;2023-04-08T04:01:06;101592.22;;;5.75;100.00
13734;BME280;43298;52.560;13.508;2023-04-08T04:03:32;101593.94;;;5.75;100.00
13734;BME280;43298;52.560;13.508;2023-04-08T04:05:58;101593.03;;;5.79;100.00
13734;BME280;43298;52.560;13.508;2023-04-08T04:08:24;101595.59;;;5.83;100.00
13734;BME280;43298;52.560;13.508;2023-04-08T04:10:49;101595.63;;;5.82;100.00
13734;BME280;43298;52.560;13.508;2023-04-08T04:13:16;101597.28;;;5.80;100.00
13734;BME280;43298;52.560;13.508;2023-04-08T04:15:41;101603.31;;;5.82;100.00
13734;BME280;43298;52.560;13.508;2023-04-08T04:18:07;101611.88;;;5.81;100.00
13734;BME280;43298;52.560;13.508;2023-04-08T04:20:33;101611.88;;;5.81;100.00
13734;BME280;43298;52.560;13.508;2023-04-08T04:22:59;101619.59;;;5.81;100.00
13734;BME280;43298;52.560;13.508;2023-04-08T04:25:25;101605.00;;;5.83;100.00
13734;BME280;43298;52.560;13.508;2023-04-08T04:27:51;101610.13;;;5.83;100.00
13734;BME280;43298;52.560;13.508;2023-04-08T04:30:17;101612.69;;;5.84;100.00
13734;BME280;43298;52.560;13.508;2023-04-08T04:32:44;101613.53;;;5.88;100.00
13734;BME280;43298;52.560;13.508;2023-04-08T04:35:11;101600.72;;;5.85;100.00
13734;BME280;43298;52.560;13.508;2023-04-08T04:37:37;101605.88;;;5.85;100.00
13734;BME280;43298;52.560;13.508;2023-04-08T04:40:04;101607.56;;;5.84;100.00
13734;BME280;43298;52.560;13.508;2023-04-08T04:42:31;101619.50;;;5.90;100.00
13734;BME280;43298;52.560;13.508;2023-04-08T04:44:57;101619.53;;;5.85;100.00
13734;BME280;43298;52.560;13.508;2023-04-08T04:47:24;101617.81;;;5.87;100.00
13734;BME280;43298;52.560;13.508;2023-04-08T04:49:50;101634.09;;;5.85;100.00
13734;BME280;43298;52.560;13.508;2023-04-08T04:52:16;101628.94;;;5.88;100.00
13734;BME280;43298;52.560;13.508;2023-04-08T04:54:42;101635.75;;;5.89;100.00
13734;BME280;43298;52.560;13.508;2023-04-08T04:57:08;101641.75;;;5.89;100.00
13734;BME280;43298;52.560;13.508;2023-04-08T04:59:35;101638.31;;;5.90;100.00
13734;BME280;43298;52.560;13.508;2023-04-08T05:02:01;101636.66;;;5.86;100.00
13734;BME280;43298;52.560;13.508;2023-04-08T05:04:27;101632.31;;;5.90;100.00
13734;BME280;43298;52.560;13.508;2023-04-08T05:06:53;101639.16;;;5.91;100.00
13734;BME280;43298;52.560;13.508;2023-04-08T05:09:19;101640.03;;;5.90;100.00
13734;BME280;43298;52.560;13.508;2023-04-08T05:11:45;101642.56;;;5.93;100.00
13734;BME280;43298;52.560;13.508;2023-04-08T05:14:11;101649.41;;;5.94;100.00
13734;BME280;43298;52.560;13.508;2023-04-08T05:16:36;101646.81;;;5.95;100.00
13734;BME280;43298;52.560;13.508;2023-04-08T05:19:03;101651.94;;;5.98;100.00
13734;BME280;43298;52.560;13.508;2023-04-08T05:21:29;101646.78;;;6.00;100.00
13734;BME280;43298;52.560;13.508;2023-04-08T05:23:55;101645.91;;;6.04;100.00
13734;BME280;43298;52.560;13.508;2023-04-08T05:26:20;101643.31;;;6.07;100.00
13734;BME280;43298;52.560;13.508;2023-04-08T05:28:48;101646.72;;;6.09;100.00
13734;BME280;43298;52.560;13.508;2023-04-08T05:31:18;101653.47;;;6.16;100.00
13734;BME280;43298;52.560;13.508;2023-04-08T05:33:44;101658.56;;;6.20;100.00
13734;BME280;43298;52.560;13.508;2023-04-08T05:36:11;101668.94;;;6.14;100.00
13734;BME280;43298;52.560;13.508;2023-04-08T05:38:38;101676.63;;;6.13;100.00
13734;BME280;43298;52.560;13.508;2023-04-08T05:41:04;101674.88;;;6.18;100.00
13734;BME280;43298;52.560;13.508;2023-04-08T05:43:32;101680.84;;;6.20;100.00
13734;BME280;43298;52.560;13.508;2023-04-08T05:45:58;101681.63;;;6.28;100.00
13734;BME280;43298;52.560;13.508;2023-04-08T05:48:24;101685.09;;;6.24;100.00
13734;BME280;43298;52.560;13.508;2023-04-08T05:50:50;101688.56;;;6.22;100.00
13734;BME280;43298;52.560;13.508;2023-04-08T05:53:16;101684.22;;;6.23;100.00
13734;BME280;43298;52.560;13.508;2023-04-08T05:55:41;101686.75;;;6.31;100.00
13734;BME280;43298;52.560;13.508;2023-04-08T05:58:07;101688.47;;;6.29;100.00
13734;BME280;43298;52.560;13.508;2023-04-08T06:00:33;101692.69;;;6.33;100.00
13734;BME280;43298;52.560;13.508;2023-04-08T06:02:59;101695.28;;;6.32;100.00
13734;BME280;43298;52.560;13.508;2023-04-08T06:05:25;101702.13;;;6.34;100.00
13734;BME280;43298;52.560;13.508;2023-04-08T06:07:51;101706.41;;;6.35;100.00
13734;BME280;43298;52.560;13.508;2023-04-08T06:10:17;101698.59;;;6.44;100.00
13734;BME280;43298;52.560;13.508;2023-04-08T06:12:42;101711.38;;;6.52;100.00
13734;BME280;43298;52.560;13.508;2023-04-08T06:15:09;101703.72;;;6.47;100.00
13734;BME280;43298;52.560;13.508;2023-04-08T06:17:36;101710.53;;;6.48;100.00
13734;BME280;43298;52.560;13.508;2023-04-08T06:20:02;101709.69;;;6.51;100.00
13734;BME280;43298;52.560;13.508;2023-04-08T06:22:28;101717.41;;;6.49;100.00
13734;BME280;43298;52.560;13.508;2023-04-08T06:24:54;101713.03;;;6.57;100.00
13734;BME280;43298;52.560;13.508;2023-04-08T06:27:21;101713.97;;;6.47;100.00
13734;BME280;43298;52.560;13.508;2023-04-08T06:29:46;101709.56;;;6.63;100.00
13734;BME280;43298;52.560;13.508;2023-04-08T06:32:13;101718.13;;;6.62;100.00
13734;BME280;43298;52.560;13.508;2023-04-08T06:34:39;101726.75;;;6.56;100.00
13734;BME280;43298;52.560;13.508;2023-04-08T06:37:05;101734.38;;;6.62;100.00
13734;BME280;43298;52.560;13.508;2023-04-08T06:39:31;101735.38;;;6.52;100.00
13734;BME280;43298;52.560;13.508;2023-04-08T06:41:57;101732.72;;;6.58;100.00
13734;BME280;43298;52.560;13.508;2023-04-08T06:44:23;101746.28;;;6.72;100.00
13734;BME280;43298;52.560;13.508;2023-04-08T06:46:49;101740.19;;;6.82;100.00
13734;BME280;43298;52.560;13.508;2023-04-08T06:49:15;101747.88;;;6.85;100.00
13734;BME280;43298;52.560;13.508;2023-04-08T06:51:41;101750.50;;;6.79;100.00
13734;BME280;43298;52.560;13.508;2023-04-08T06:54:07;101761.59;;;6.84;100.00
13734;BME280;43298;52.560;13.508;2023-04-08T06:56:35;101764.19;;;6.81;100.00
13734;BME280;43298;52.560;13.508;2023-04-08T06:59:02;101771.81;;;6.90;100.00
13734;BME280;43298;52.560;13.508;2023-04-08T07:01:29;101765.66;;;7.06;100.00
13734;BME280;43298;52.560;13.508;2023-04-08T07:03:56;101769.22;;;6.93;100.00
13734;BME280;43298;52.560;13.508;2023-04-08T07:06:22;101777.69;;;7.00;100.00
13734;BME280;43298;52.560;13.508;2023-04-08T07:08:49;101769.03;;;7.08;100.00
13734;BME280;43298;52.560;13.508;2023-04-08T07:11:15;101773.34;;;7.09;100.00
13734;BME280;43298;52.560;13.508;2023-04-08T07:13:41;101769.63;;;7.34;100.00
13734;BME280;43298;52.560;13.508;2023-04-08T07:16:07;101772.06;;;7.43;100.00
13734;BME280;43298;52.560;13.508;2023-04-08T07:18:33;101773.13;;;7.29;100.00
13734;BME280;43298;52.560;13.508;2023-04-08T07:20:59;101784.88;;;7.49;100.00
13734;BME280;43298;52.560;13.508;2023-04-08T07:23:26;101787.44;;;7.49;100.00
13734;BME280;43298;52.560;13.508;2023-04-08T07:25:52;101794.47;;;7.34;100.00
13734;BME280;43298;52.560;13.508;2023-04-08T07:28:19;101786.72;;;7.38;100.00
13734;BME280;43298;52.560;13.508;2023-04-08T07:30:45;101791.88;;;7.38;100.00
13734;BME280;43298;52.560;13.508;2023-04-08T07:33:11;101785.03;;;7.36;100.00
13734;BME280;43298;52.560;13.508;2023-04-08T07:35:37;101784.97;;;7.40;100.00
13734;BME280;43298;52.560;13.508;2023-04-08T07:38:03;101790.91;;;7.47;100.00
13734;BME280;43298;52.560;13.508;2023-04-08T07:40:29;101795.88;;;7.59;100.00
13734;BME280;43298;52.560;13.508;2023-04-08T07:42:55;101796.59;;;7.71;100.00
13734;BME280;43298;52.560;13.508;2023-04-08T07:45:21;101787.88;;;7.80;100.00
13734;BME280;43298;52.560;13.508;2023-04-08T07:47:47;101790.41;;;7.84;100.00
13734;BME280;43298;52.560;13.508;2023-04-08T07:50:13;101796.25;;;7.97;100.00
13734;BME280;43298;52.560;13.508;2023-04-08T07:52:38;101797.31;;;7.81;100.00
13734;BME280;43298;52.560;13.508;2023-04-08T07:55:05;101793.53;;;8.06;100.00
13734;BME280;43298;52.560;13.508;2023-04-08T07:57:31;101794.41;;;8.03;100.00
13734;BME280;43298;52.560;13.508;2023-04-08T07:59:57;101795.25;;;8.07;100.00
13734;BME280;43298;52.560;13.508;2023-04-08T08:02:23;101788.03;;;8.30;100.00
13734;BME280;43298;52.560;13.508;2023-04-08T08:04:49;101799.09;;;8.36;100.00
13734;BME280;43298;52.560;13.508;2023-04-08T08:07:15;101794.38;;;8.08;100.00
13734;BME280;43298;52.560;13.508;2023-04-08T08:09:41;101796.63;;;8.32;100.00
13734;BME280;43298;52.560;13.508;2023-04-08T08:12:06;101784.75;;;8.19;100.00
13734;BME280;43298;52.560;13.508;2023-04-08T08:14:32;101789.72;;;8.31;100.00
13734;BME280;43298;52.560;13.508;2023-04-08T08:16:58;101788.66;;;8.45;100.00
13734;BME280;43298;52.560;13.508;2023-04-08T08:19:24;101795.38;;;8.55;100.00
13734;BME280;43298;52.560;13.508;2023-04-08T08:21:49;101790.84;;;8.69;100.00
13734;BME280;43298;52.560;13.508;2023-04-08T08:24:16;101794.06;;;8.80;100.00
13734;BME280;43298;52.560;13.508;2023-04-08T08:26:42;101798.78;;;8.54;100.00
13734;BME280;43298;52.560;13.508;2023-04-08T08:29:10;101806.81;;;8.38;100.00
13734;BME280;43298;52.560;13.508;2023-04-08T08:31:35;101805.91;;;8.40;100.00
13734;BME280;43298;52.560;13.508;2023-04-08T08:34:01;101808.66;;;8.30;100.00
13734;BME280;43298;52.560;13.508;2023-04-08T08:36:27;101805.31;;;8.25;100.00
13734;BME280;43298;52.560;13.508;2023-04-08T08:38:53;101806.91;;;8.32;100.00
13734;BME280;43298;52.560;13.508;2023-04-08T08:41:20;101803.94;;;8.56;100.00
13734;BME280;43298;52.560;13.508;2023-04-08T08:43:46;101806.63;;;8.50;100.00
13734;BME280;43298;52.560;13.508;2023-04-08T08:46:16;101805.16;;;8.34;100.00
13734;BME280;43298;52.560;13.508;2023-04-08T08:48:43;101815.44;;;8.35;100.00
13734;BME280;43298;52.560;13.508;2023-04-08T08:51:10;101818.22;;;8.23;100.00
13734;BME280;43298;52.560;13.508;2023-04-08T08:53:37;101816.31;;;8.36;100.00
13734;BME280;43298;52.560;13.508;2023-04-08T08:56:04;101815.81;;;8.64;100.00
13734;BME280;43298;52.560;13.508;2023-04-08T08:58:33;101818.47;;;8.60;100.00
13734;BME280;43298;52.560;13.508;2023-04-08T09:00:59;101816.81;;;8.56;100.00
13734;BME280;43298;52.560;13.508;2023-04-08T09:03:26;101819.41;;;8.54;100.00
13734;BME280;43298;52.560;13.508;2023-04-08T09:05:59;101816.59;;;8.71;100.00
13734;BME280;43298;52.560;13.508;2023-04-08T09:08:34;101830.06;;;8.85;100.00
13734;BME280;43298;52.560;13.508;2023-04-08T09:11:26;101823.28;;;8.81;100.00
13734;BME280;43298;52.560;13.508;2023-04-08T09:13:52;101828.16;;;8.97;100.00
13734;BME280;43298;52.560;13.508;2023-04-08T09:16:18;101831.78;;;8.87;100.00
13734;BME280;43298;52.560;13.508;2023-04-08T09:18:46;101834.34;;;8.89;100.00
13734;BME280;43298;52.560;13.508;2023-04-08T09:21:15;101836.28;;;8.76;100.00
13734;BME280;43298;52.560;13.508;2023-04-08T09:23:50;101837.25;;;8.69;100.00
13734;BME280;43298;52.560;13.508;2023-04-08T09:26:21;101842.22;;;8.78;100.00
13734;BME280;43298;52.560;13.508;2023-04-08T09:31:36;101847.13;;;8.93;100.00
13734;BME280;43298;52.560;13.508;2023-04-08T09:34:13;101853.13;;;8.95;100.00
13734;BME280;43298;52.560;13.508;2023-04-08T09:36:45;101848.31;;;9.23;100.00
13734;BME280;43298;52.560;13.508;2023-04-08T09:39:11;101848.78;;;9.45;100.00
13734;BME280;43298;52.560;13.508;2023-04-08T09:41:38;101852.03;;;9.10;100.00
13734;BME280;43298;52.560;13.508;2023-04-08T09:44:10;101856.53;;;8.97;100.00
13734;BME280;43298;52.560;13.508;2023-04-08T09:49:39;101856.59;;;8.94;100.00
13734;BME280;43298;52.560;13.508;2023-04-08T09:52:10;101854.16;;;9.32;100.00
13734;BME280;43298;52.560;13.508;2023-04-08T09:55:07;101852.75;;;10.02;100.00
13734;BME280;43298;52.560;13.508;2023-04-08T10:00:18;101853.06;;;10.64;100.00
13734;BME280;43298;52.560;13.508;2023-04-08T10:05:35;101850.97;;;10.43;100.00
13734;BME280;43298;52.560;13.508;2023-04-08T10:08:02;101853.97;;;10.27;100.00
13734;BME280;43298;52.560;13.508;2023-04-08T10:10:29;101857.97;;;10.75;100.00
13734;BME280;43298;52.560;13.508;2023-04-08T10:12:56;101857.25;;;10.70;100.00
13734;BME280;43298;52.560;13.508;2023-04-08T10:17:53;101860.59;;;11.39;100.00
13734;BME280;43298;52.560;13.508;2023-04-08T10:25:48;101861.69;;;10.98;100.00
13734;BME280;43298;52.560;13.508;2023-04-08T10:30:47;101869.34;;;11.03;100.00
13734;BME280;43298;52.560;13.508;2023-04-08T10:38:41;101873.34;;;10.81;100.00
13734;BME280;43298;52.560;13.508;2023-04-08T10:41:09;101874.72;;;10.95;100.00
13734;BME280;43298;52.560;13.508;2023-04-08T10:43:35;101876.66;;;10.86;100.00
13734;BME280;43298;52.560;13.508;2023-04-08T10:46:02;101882.78;;;10.83;100.00
13734;BME280;43298;52.560;13.508;2023-04-08T10:48:29;101877.97;;;11.03;100.00
13734;BME280;43298;52.560;13.508;2023-04-08T10:51:03;101887.31;;;11.09;100.00
13734;BME280;43298;52.560;13.508;2023-04-08T10:53:35;101890.19;;;10.97;100.00
13734;BME280;43298;52.560;13.508;2023-04-08T10:58:34;101890.63;;;11.14;100.00
13734;BME280;43298;52.560;13.508;2023-04-08T11:01:05;101888.41;;;10.99;100.00
13734;BME280;43298;52.560;13.508;2023-04-08T11:03:35;101888.72;;;10.87;100.00
13734;BME280;43298;52.560;13.508;2023-04-08T11:06:02;101894.81;;;11.18;100.00
13734;BME280;43298;52.560;13.508;2023-04-08T11:08:29;101893.09;;;10.85;100.00
13734;BME280;43298;52.560;13.508;2023-04-08T11:10:55;101895.75;;;10.82;100.00
13734;BME280;43298;52.560;13.508;2023-04-08T11:13:22;101891.97;;;10.95;100.00
13734;BME280;43298;52.560;13.508;2023-04-08T11:15:49;101899.72;;;10.96;100.00
13734;BME280;43298;52.560;13.508;2023-04-08T11:18:16;101896.06;;;11.37;100.00
13734;BME280;43298;52.560;13.508;2023-04-08T11:20:43;101899.09;;;11.20;100.00
13734;BME280;43298;52.560;13.508;2023-04-08T11:23:15;101904.28;;;11.20;100.00
13734;BME280;43298;52.560;13.508;2023-04-08T11:25:46;101903.28;;;11.26;100.00
13734;BME280;43298;52.560;13.508;2023-04-08T11:28:13;101899.16;;;11.17;100.00
13734;BME280;43298;52.560;13.508;2023-04-08T11:30:40;101897.91;;;11.32;100.00
13734;BME280;43298;52.560;13.508;2023-04-08T11:33:07;101908.53;;;11.23;100.00
13734;BME280;43298;52.560;13.508;2023-04-08T11:35:33;101905.97;;;11.21;100.00
13734;BME280;43298;52.560;13.508;2023-04-08T11:37:59;101918.31;;;11.12;100.00
13734;BME280;43298;52.560;13.508;2023-04-08T11:40:25;101916.47;;;11.15;100.00
13734;BME280;43298;52.560;13.508;2023-04-08T11:42:51;101917.00;;;10.94;100.00
13734;BME280;43298;52.560;13.508;2023-04-08T11:45:19;101910.22;;;10.89;100.00
13734;BME280;43298;52.560;13.508;2023-04-08T11:47:46;101923.94;;;10.94;100.00
13734;BME280;43298;52.560;13.508;2023-04-08T11:50:25;101926.16;;;11.41;100.00
13734;BME280;43298;52.560;13.508;2023-04-08T11:52:52;101914.22;;;11.69;100.00
13734;BME280;43298;52.560;13.508;2023-04-08T11:55:31;101919.97;;;12.09;100.00
13734;BME280;43298;52.560;13.508;2023-04-08T11:58:04;101917.31;;;12.95;100.00
13734;BME280;43298;52.560;13.508;2023-04-08T12:00:31;101915.06;;;13.10;100.00
13734;BME280;43298;52.560;13.508;2023-04-08T12:02:58;101910.47;;;12.65;100.00
13734;BME280;43298;52.560;13.508;2023-04-08T12:05:24;101919.63;;;12.76;100.00
13734;BME280;43298;52.560;13.508;2023-04-08T12:07:50;101913.25;;;12.86;100.00
13734;BME280;43298;52.560;13.508;2023-04-08T12:10:16;101905.81;;;12.48;100.00
13734;BME280;43298;52.560;13.508;2023-04-08T12:12:42;101917.06;;;12.49;100.00
13734;BME280;43298;52.560;13.508;2023-04-08T12:15:08;101916.81;;;12.29;100.00
13734;BME280;43298;52.560;13.508;2023-04-08T12:17:34;101914.25;;;12.27;100.00
13734;BME280;43298;52.560;13.508;2023-04-08T12:20:00;101914.41;;;13.30;100.00
13734;BME280;43298;52.560;13.508;2023-04-08T12:22:26;101913.16;;;13.89;100.00
13734;BME280;43298;52.560;13.508;2023-04-08T12:24:52;101900.00;;;14.39;100.00
13734;BME280;43298;52.560;13.508;2023-04-08T12:27:18;101901.78;;;13.91;100.00
13734;BME280;43298;52.560;13.508;2023-04-08T12:29:44;101902.38;;;13.27;100.00
13734;BME280;43298;52.560;13.508;2023-04-08T12:32:11;101903.47;;;12.94;100.00
13734;BME280;43298;52.560;13.508;2023-04-08T12:34:37;101913.47;;;13.06;100.00
13734;BME280;43298;52.560;13.508;2023-04-08T12:37:02;101914.94;;;12.61;100.00
13734;BME280;43298;52.560;13.508;2023-04-08T12:39:28;101911.06;;;12.47;100.00
13734;BME280;43298;52.560;13.508;2023-04-08T12:41:54;101916.06;;;12.53;100.00
13734;BME280;43298;52.560;13.508;2023-04-08T12:44:21;101922.94;;;12.54;100.00
13734;BME280;43298;52.560;13.508;2023-04-08T12:46:47;101925.41;;;12.58;100.00
13734;BME280;43298;52.560;13.508;2023-04-08T12:49:12;101920.69;;;12.71;100.00
13734;BME280;43298;52.560;13.508;2023-04-08T12:51:38;101914.59;;;12.72;100.00
13734;BME280;43298;52.560;13.508;2023-04-08T12:54:05;101915.03;;;12.58;100.00
13734;BME280;43298;52.560;13.508;2023-04-08T12:56:31;101913.03;;;12.66;100.00
13734;BME280;43298;52.560;13.508;2023-04-08T12:58:58;101911.25;;;12.94;100.00
13734;BME280;43298;52.560;13.508;2023-04-08T13:01:24;101895.75;;;13.91;100.00
13734;BME280;43298;52.560;13.508;2023-04-08T13:03:50;101892.06;;;14.85;100.00
13734;BME280;43298;52.560;13.508;2023-04-08T13:06:16;101880.06;;;14.60;100.00
13734;BME280;43298;52.560;13.508;2023-04-08T13:08:41;101876.91;;;15.35;100.00
13734;BME280;43298;52.560;13.508;2023-04-08T13:11:07;101858.38;;;13.70;100.00
13734;BME280;43298;52.560;13.508;2023-04-08T13:13:33;101872.69;;;13.34;100.00
13734;BME280;43298;52.560;13.508;2023-04-08T13:15:59;101875.44;;;13.30;100.00